GLD166 SBGM-SWCQ
Flight info
| Callsign | GLD166 |
|---|---|
| Flight time | 1h 7m |
| Altitude | 5500 |
| Route | 1107S06513W 1131S06508W 1159S06453W SLSO |
| Aircraft | C182/M-SDFGIRY/S |
Departure
| Time | 2026-05-05 13:44 |
|---|---|
| Airport | Guajará-Mirim Airport (SBGM) |
Arrival
| Time | 2026-05-05 14:51 |
|---|---|
| Airport | Costa Marques Airport (SWCQ) |
| Time | Latitude | Longitude | Altitude | Speed | Heading |
|---|---|---|---|---|---|
| 2026-05-05 13:41 | -10.78901 | -65.28263 | 488 ft | 0 kts | 241° |
| 2026-05-05 13:42 | -10.78909 | -65.28286 | 485 ft | 9 kts | 259° |
| 2026-05-05 13:42 | -10.78911 | -65.28307 | 488 ft | 0 kts | 269° |
| 2026-05-05 13:43 | -10.78911 | -65.28313 | 485 ft | 5 kts | 268° |
| 2026-05-05 13:43 | -10.78925 | -65.28373 | 489 ft | 9 kts | 257° |
| 2026-05-05 13:43 | -10.78823 | -65.28438 | 484 ft | 40 kts | 343° |
| 2026-05-05 13:43 | -10.78428 | -65.28539 | 577 ft | 66 kts | 345° |
| 2026-05-05 13:44 | -10.77943 | -65.28676 | 794 ft | 76 kts | 344° |
| 2026-05-05 13:44 | -10.77416 | -65.28817 | 1052 ft | 85 kts | 342° |
| 2026-05-05 13:44 | -10.76968 | -65.29200 | 1269 ft | 98 kts | 285° |
| 2026-05-05 13:44 | -10.77120 | -65.29931 | 1433 ft | 116 kts | 248° |
| 2026-05-05 13:45 | -10.77847 | -65.30348 | 1535 ft | 134 kts | 179° |
| 2026-05-05 13:45 | -10.78775 | -65.30136 | 1709 ft | 139 kts | 167° |
| 2026-05-05 13:45 | -10.79733 | -65.29910 | 1868 ft | 144 kts | 167° |
| 2026-05-05 13:45 | -10.80711 | -65.29692 | 2025 ft | 143 kts | 167° |
| 2026-05-05 13:46 | -10.81686 | -65.29465 | 2206 ft | 149 kts | 168° |
| 2026-05-05 13:46 | -10.82701 | -65.29226 | 2332 ft | 149 kts | 167° |
| 2026-05-05 13:46 | -10.83709 | -65.28996 | 2473 ft | 148 kts | 168° |
| 2026-05-05 13:46 | -10.84733 | -65.28762 | 2645 ft | 155 kts | 168° |
| 2026-05-05 13:47 | -10.85779 | -65.28509 | 2772 ft | 153 kts | 167° |
| 2026-05-05 13:47 | -10.86814 | -65.28263 | 2918 ft | 152 kts | 167° |
| 2026-05-05 13:47 | -10.87847 | -65.28025 | 3064 ft | 152 kts | 167° |
| 2026-05-05 13:47 | -10.88872 | -65.27791 | 3212 ft | 151 kts | 167° |
| 2026-05-05 13:48 | -10.89901 | -65.27561 | 3354 ft | 151 kts | 167° |
| 2026-05-05 13:48 | -10.90924 | -65.27334 | 3500 ft | 150 kts | 167° |
| 2026-05-05 13:48 | -10.91945 | -65.27112 | 3653 ft | 150 kts | 168° |
| 2026-05-05 13:48 | -10.92976 | -65.26893 | 3782 ft | 152 kts | 167° |
| 2026-05-05 13:49 | -10.94002 | -65.26677 | 3925 ft | 149 kts | 167° |
| 2026-05-05 13:49 | -10.94999 | -65.26473 | 4068 ft | 147 kts | 167° |
| 2026-05-05 13:49 | -10.95998 | -65.26271 | 4212 ft | 146 kts | 167° |
| 2026-05-05 13:49 | -10.96996 | -65.26074 | 4362 ft | 146 kts | 168° |
| 2026-05-05 13:50 | -10.97988 | -65.25876 | 4502 ft | 146 kts | 167° |
| 2026-05-05 13:50 | -10.98978 | -65.25683 | 4650 ft | 144 kts | 167° |
| 2026-05-05 13:50 | -10.99966 | -65.25491 | 4796 ft | 144 kts | 167° |
| 2026-05-05 13:50 | -11.00951 | -65.25302 | 4942 ft | 144 kts | 167° |
| 2026-05-05 13:51 | -11.01935 | -65.25116 | 5084 ft | 144 kts | 167° |
| 2026-05-05 13:51 | -11.02919 | -65.24927 | 5228 ft | 144 kts | 167° |
| 2026-05-05 13:51 | -11.03882 | -65.24743 | 5460 ft | 137 kts | 168° |
| 2026-05-05 13:51 | -11.04839 | -65.24557 | 5517 ft | 145 kts | 167° |
| 2026-05-05 13:52 | -11.05856 | -65.24358 | 5518 ft | 151 kts | 167° |
| 2026-05-05 13:52 | -11.06906 | -65.24152 | 5528 ft | 155 kts | 167° |
| 2026-05-05 13:52 | -11.07977 | -65.23944 | 5536 ft | 158 kts | 167° |
| 2026-05-05 13:52 | -11.09047 | -65.23730 | 5539 ft | 160 kts | 167° |
| 2026-05-05 13:53 | -11.10141 | -65.23510 | 5544 ft | 161 kts | 167° |
| 2026-05-05 13:53 | -11.11239 | -65.23287 | 5545 ft | 161 kts | 167° |
| 2026-05-05 13:53 | -11.12338 | -65.23063 | 5548 ft | 161 kts | 167° |
| 2026-05-05 13:53 | -11.13440 | -65.22836 | 5543 ft | 162 kts | 167° |
| 2026-05-05 13:54 | -11.14543 | -65.22608 | 5547 ft | 162 kts | 167° |
| 2026-05-05 13:54 | -11.15651 | -65.22380 | 5548 ft | 163 kts | 167° |
| 2026-05-05 13:54 | -11.16760 | -65.22153 | 5545 ft | 162 kts | 167° |
| 2026-05-05 13:54 | -11.17869 | -65.21922 | 5546 ft | 163 kts | 167° |
| 2026-05-05 13:55 | -11.18982 | -65.21686 | 5549 ft | 163 kts | 167° |
| 2026-05-05 13:55 | -11.20092 | -65.21453 | 5548 ft | 163 kts | 167° |
| 2026-05-05 13:55 | -11.21207 | -65.21216 | 5547 ft | 163 kts | 167° |
| 2026-05-05 13:55 | -11.22318 | -65.20978 | 5550 ft | 163 kts | 167° |
| 2026-05-05 13:56 | -11.23429 | -65.20740 | 5547 ft | 163 kts | 167° |
| 2026-05-05 13:56 | -11.24535 | -65.20502 | 5549 ft | 163 kts | 167° |
| 2026-05-05 13:56 | -11.25640 | -65.20264 | 5546 ft | 162 kts | 167° |
| 2026-05-05 13:56 | -11.26745 | -65.20023 | 5550 ft | 162 kts | 167° |
| 2026-05-05 13:57 | -11.27849 | -65.19783 | 5547 ft | 162 kts | 167° |
| 2026-05-05 13:57 | -11.28940 | -65.19546 | 5550 ft | 162 kts | 167° |
| 2026-05-05 13:57 | -11.30046 | -65.19307 | 5548 ft | 162 kts | 167° |
| 2026-05-05 13:57 | -11.31150 | -65.19067 | 5548 ft | 162 kts | 167° |
| 2026-05-05 13:58 | -11.32253 | -65.18826 | 5551 ft | 162 kts | 167° |
| 2026-05-05 13:58 | -11.33357 | -65.18584 | 5547 ft | 162 kts | 167° |
| 2026-05-05 13:58 | -11.34462 | -65.18342 | 5546 ft | 162 kts | 167° |
| 2026-05-05 13:58 | -11.35556 | -65.18053 | 5543 ft | 162 kts | 161° |
| 2026-05-05 13:59 | -11.37594 | -65.17085 | 5544 ft | 162 kts | 150° |
| 2026-05-05 13:59 | -11.38579 | -65.16556 | 5541 ft | 162 kts | 150° |
| 2026-05-05 14:00 | -11.40573 | -65.15480 | 5546 ft | 162 kts | 150° |
| 2026-05-05 14:00 | -11.41237 | -65.15124 | 5548 ft | 163 kts | 151° |
| 2026-05-05 14:00 | -11.42570 | -65.14403 | 5544 ft | 162 kts | 150° |
| 2026-05-05 14:00 | -11.43565 | -65.13863 | 5544 ft | 162 kts | 150° |
| 2026-05-05 14:01 | -11.44559 | -65.13323 | 5545 ft | 162 kts | 150° |
| 2026-05-05 14:01 | -11.45553 | -65.12784 | 5543 ft | 162 kts | 150° |
| 2026-05-05 14:01 | -11.46547 | -65.12242 | 5545 ft | 162 kts | 150° |
| 2026-05-05 14:01 | -11.47544 | -65.11700 | 5545 ft | 163 kts | 150° |
| 2026-05-05 14:02 | -11.48532 | -65.11164 | 5546 ft | 163 kts | 150° |
| 2026-05-05 14:02 | -11.49540 | -65.10615 | 5555 ft | 166 kts | 150° |
| 2026-05-05 14:02 | -11.50571 | -65.10054 | 5560 ft | 169 kts | 150° |
| 2026-05-05 14:02 | -11.51603 | -65.09487 | 5546 ft | 167 kts | 150° |
| 2026-05-05 14:03 | -11.52615 | -65.08926 | 5549 ft | 165 kts | 150° |
| 2026-05-05 14:03 | -11.53626 | -65.08367 | 5550 ft | 165 kts | 150° |
| 2026-05-05 14:03 | -11.54630 | -65.07814 | 5548 ft | 163 kts | 150° |
| 2026-05-05 14:03 | -11.55629 | -65.07263 | 5546 ft | 163 kts | 150° |
| 2026-05-05 14:04 | -11.56627 | -65.06710 | 5547 ft | 164 kts | 150° |
| 2026-05-05 14:04 | -11.57630 | -65.06160 | 5549 ft | 163 kts | 150° |
| 2026-05-05 14:04 | -11.58629 | -65.05606 | 5544 ft | 163 kts | 150° |
| 2026-05-05 14:04 | -11.59627 | -65.05051 | 5540 ft | 163 kts | 150° |
| 2026-05-05 14:05 | -11.60627 | -65.04500 | 5539 ft | 163 kts | 150° |
| 2026-05-05 14:05 | -11.61624 | -65.03950 | 5539 ft | 163 kts | 150° |
| 2026-05-05 14:05 | -11.62622 | -65.03399 | 5538 ft | 163 kts | 150° |
| 2026-05-05 14:05 | -11.63604 | -65.02854 | 5543 ft | 163 kts | 150° |
| 2026-05-05 14:06 | -11.64596 | -65.02302 | 5543 ft | 162 kts | 150° |
| 2026-05-05 14:06 | -11.65586 | -65.01751 | 5542 ft | 162 kts | 150° |
| 2026-05-05 14:06 | -11.66576 | -65.01200 | 5543 ft | 162 kts | 150° |
| 2026-05-05 14:06 | -11.67567 | -65.00647 | 5543 ft | 162 kts | 150° |
| 2026-05-05 14:07 | -11.68556 | -65.00091 | 5542 ft | 162 kts | 150° |
| 2026-05-05 14:07 | -11.69550 | -64.99534 | 5543 ft | 163 kts | 150° |
| 2026-05-05 14:07 | -11.70543 | -64.98975 | 5543 ft | 163 kts | 150° |
| 2026-05-05 14:07 | -11.71538 | -64.98414 | 5536 ft | 162 kts | 150° |
| 2026-05-05 14:08 | -11.72526 | -64.97858 | 5539 ft | 162 kts | 150° |
| 2026-05-05 14:08 | -11.73515 | -64.97303 | 5537 ft | 162 kts | 150° |
| 2026-05-05 14:08 | -11.74503 | -64.96744 | 5536 ft | 162 kts | 150° |
| 2026-05-05 14:08 | -11.75481 | -64.96193 | 5536 ft | 163 kts | 150° |
| 2026-05-05 14:09 | -11.76476 | -64.95632 | 5540 ft | 164 kts | 150° |
| 2026-05-05 14:09 | -11.77475 | -64.95071 | 5544 ft | 164 kts | 150° |
| 2026-05-05 14:09 | -11.78475 | -64.94507 | 5540 ft | 164 kts | 150° |
| 2026-05-05 14:09 | -11.79475 | -64.93942 | 5542 ft | 164 kts | 150° |
| 2026-05-05 14:10 | -11.80476 | -64.93378 | 5538 ft | 165 kts | 150° |
| 2026-05-05 14:10 | -11.81464 | -64.92821 | 5542 ft | 164 kts | 150° |
| 2026-05-05 14:10 | -11.82461 | -64.92260 | 5542 ft | 163 kts | 150° |
| 2026-05-05 14:10 | -11.83460 | -64.91699 | 5542 ft | 164 kts | 150° |
| 2026-05-05 14:11 | -11.84458 | -64.91136 | 5540 ft | 164 kts | 150° |
| 2026-05-05 14:11 | -11.85457 | -64.90578 | 5540 ft | 163 kts | 150° |
| 2026-05-05 14:11 | -11.86449 | -64.90022 | 5542 ft | 163 kts | 149° |
| 2026-05-05 14:11 | -11.87446 | -64.89465 | 5540 ft | 163 kts | 150° |
| 2026-05-05 14:12 | -11.88446 | -64.88904 | 5542 ft | 164 kts | 150° |
| 2026-05-05 14:12 | -11.89442 | -64.88343 | 5540 ft | 163 kts | 150° |
| 2026-05-05 14:12 | -11.90436 | -64.87780 | 5541 ft | 163 kts | 149° |
| 2026-05-05 14:12 | -11.91433 | -64.87218 | 5542 ft | 164 kts | 150° |
| 2026-05-05 14:13 | -11.92431 | -64.86656 | 5540 ft | 164 kts | 150° |
| 2026-05-05 14:13 | -11.93430 | -64.86092 | 5539 ft | 164 kts | 150° |
| 2026-05-05 14:13 | -11.94414 | -64.85535 | 5558 ft | 165 kts | 149° |
| 2026-05-05 14:13 | -11.95434 | -64.84959 | 5542 ft | 167 kts | 150° |
| 2026-05-05 14:14 | -11.96456 | -64.84383 | 5544 ft | 168 kts | 150° |
| 2026-05-05 14:14 | -11.97475 | -64.83807 | 5545 ft | 167 kts | 149° |
| 2026-05-05 14:14 | -11.98462 | -64.83184 | 5544 ft | 167 kts | 144° |
| 2026-05-05 14:14 | -11.99428 | -64.82523 | 5546 ft | 167 kts | 144° |
| 2026-05-05 14:15 | -12.00397 | -64.81865 | 5541 ft | 168 kts | 144° |
| 2026-05-05 14:15 | -12.01374 | -64.81200 | 5538 ft | 169 kts | 144° |
| 2026-05-05 14:15 | -12.02025 | -64.80757 | 5543 ft | 171 kts | 145° |
| 2026-05-05 14:15 | -12.03339 | -64.79858 | 5544 ft | 169 kts | 144° |
| 2026-05-05 14:16 | -12.03983 | -64.79415 | 5545 ft | 168 kts | 144° |
| 2026-05-05 14:16 | -12.04950 | -64.78756 | 5545 ft | 167 kts | 145° |
| 2026-05-05 14:16 | -12.05918 | -64.78096 | 5542 ft | 166 kts | 144° |
| 2026-05-05 14:16 | -12.06876 | -64.77439 | 5545 ft | 166 kts | 144° |
| 2026-05-05 14:17 | -12.07839 | -64.76781 | 5544 ft | 167 kts | 144° |
| 2026-05-05 14:17 | -12.08807 | -64.76115 | 5542 ft | 167 kts | 144° |
| 2026-05-05 14:17 | -12.09768 | -64.75457 | 5541 ft | 165 kts | 144° |
| 2026-05-05 14:17 | -12.10722 | -64.74803 | 5539 ft | 165 kts | 144° |
| 2026-05-05 14:18 | -12.11673 | -64.74150 | 5540 ft | 165 kts | 144° |
| 2026-05-05 14:18 | -12.12625 | -64.73497 | 5540 ft | 165 kts | 144° |
| 2026-05-05 14:18 | -12.13578 | -64.72845 | 5540 ft | 165 kts | 144° |
| 2026-05-05 14:18 | -12.14533 | -64.72190 | 5541 ft | 166 kts | 144° |
| 2026-05-05 14:19 | -12.15489 | -64.71532 | 5540 ft | 166 kts | 144° |
| 2026-05-05 14:19 | -12.16386 | -64.70798 | 5537 ft | 165 kts | 135° |
| 2026-05-05 14:19 | -12.17230 | -64.70003 | 5537 ft | 165 kts | 135° |
| 2026-05-05 14:19 | -12.18073 | -64.69218 | 5536 ft | 166 kts | 135° |
| 2026-05-05 14:20 | -12.18924 | -64.68418 | 5535 ft | 165 kts | 135° |
| 2026-05-05 14:20 | -12.19771 | -64.67625 | 5537 ft | 165 kts | 135° |
| 2026-05-05 14:20 | -12.20617 | -64.66834 | 5538 ft | 165 kts | 135° |
| 2026-05-05 14:20 | -12.21463 | -64.66044 | 5534 ft | 165 kts | 135° |
| 2026-05-05 14:21 | -12.22307 | -64.65257 | 5533 ft | 164 kts | 135° |
| 2026-05-05 14:21 | -12.23147 | -64.64473 | 5533 ft | 163 kts | 135° |
| 2026-05-05 14:21 | -12.23984 | -64.63693 | 5535 ft | 163 kts | 135° |
| 2026-05-05 14:21 | -12.24821 | -64.62912 | 5534 ft | 163 kts | 135° |
| 2026-05-05 14:22 | -12.25646 | -64.62139 | 5534 ft | 163 kts | 135° |
| 2026-05-05 14:22 | -12.26482 | -64.61354 | 5534 ft | 164 kts | 135° |
| 2026-05-05 14:22 | -12.27322 | -64.60566 | 5536 ft | 164 kts | 135° |
| 2026-05-05 14:22 | -12.28166 | -64.59766 | 5537 ft | 165 kts | 135° |
| 2026-05-05 14:23 | -12.29008 | -64.58973 | 5536 ft | 164 kts | 135° |
| 2026-05-05 14:23 | -12.29850 | -64.58178 | 5536 ft | 165 kts | 135° |
| 2026-05-05 14:23 | -12.30693 | -64.57381 | 5536 ft | 165 kts | 135° |
| 2026-05-05 14:23 | -12.31536 | -64.56585 | 5533 ft | 164 kts | 135° |
| 2026-05-05 14:24 | -12.32375 | -64.55800 | 5535 ft | 163 kts | 135° |
| 2026-05-05 14:24 | -12.33209 | -64.55015 | 5534 ft | 163 kts | 135° |
| 2026-05-05 14:24 | -12.34030 | -64.54243 | 5532 ft | 163 kts | 135° |
| 2026-05-05 14:24 | -12.34864 | -64.53462 | 5531 ft | 162 kts | 135° |
| 2026-05-05 14:25 | -12.35697 | -64.52681 | 5530 ft | 162 kts | 135° |
| 2026-05-05 14:25 | -12.36533 | -64.51897 | 5534 ft | 164 kts | 135° |
| 2026-05-05 14:25 | -12.37370 | -64.51105 | 5531 ft | 164 kts | 135° |
| 2026-05-05 14:25 | -12.38207 | -64.50313 | 5532 ft | 164 kts | 135° |
| 2026-05-05 14:26 | -12.39046 | -64.49518 | 5532 ft | 165 kts | 135° |
| 2026-05-05 14:26 | -12.39892 | -64.48709 | 5535 ft | 166 kts | 133° |
| 2026-05-05 14:26 | -12.40292 | -64.47652 | 5485 ft | 160 kts | 90° |
| 2026-05-05 14:26 | -12.40286 | -64.46520 | 5489 ft | 159 kts | 86° |
| 2026-05-05 14:27 | -12.40288 | -64.45388 | 5493 ft | 158 kts | 87° |
| 2026-05-05 14:27 | -12.40292 | -64.44271 | 5487 ft | 160 kts | 87° |
| 2026-05-05 14:27 | -12.40291 | -64.43130 | 5489 ft | 160 kts | 87° |
| 2026-05-05 14:27 | -12.40293 | -64.41995 | 5489 ft | 158 kts | 87° |
| 2026-05-05 14:28 | -12.40298 | -64.40873 | 5490 ft | 158 kts | 86° |
| 2026-05-05 14:28 | -12.40307 | -64.39751 | 5487 ft | 157 kts | 87° |
| 2026-05-05 14:28 | -12.40310 | -64.38631 | 5489 ft | 158 kts | 86° |
| 2026-05-05 14:28 | -12.40317 | -64.37506 | 5490 ft | 159 kts | 87° |
| 2026-05-05 14:29 | -12.40323 | -64.36378 | 5492 ft | 158 kts | 87° |
| 2026-05-05 14:29 | -12.40328 | -64.35252 | 5490 ft | 158 kts | 87° |
| 2026-05-05 14:29 | -12.40331 | -64.34101 | 5491 ft | 164 kts | 86° |
| 2026-05-05 14:29 | -12.40337 | -64.32940 | 5500 ft | 162 kts | 87° |
| 2026-05-05 14:30 | -12.40338 | -64.31786 | 5498 ft | 162 kts | 86° |
| 2026-05-05 14:30 | -12.40347 | -64.30633 | 5490 ft | 161 kts | 86° |
| 2026-05-05 14:30 | -12.40309 | -64.29495 | 5480 ft | 159 kts | 75° |
| 2026-05-05 14:30 | -12.39642 | -64.28651 | 5427 ft | 158 kts | 26° |
| 2026-05-05 14:31 | -12.38590 | -64.28679 | 5370 ft | 157 kts | 335° |
| 2026-05-05 14:31 | -12.37930 | -64.29527 | 5333 ft | 158 kts | 296° |
| 2026-05-05 14:31 | -12.37516 | -64.30557 | 5339 ft | 156 kts | 295° |
| 2026-05-05 14:31 | -12.37092 | -64.31579 | 5340 ft | 156 kts | 295° |
| 2026-05-05 14:32 | -12.36672 | -64.32600 | 5344 ft | 156 kts | 295° |
| 2026-05-05 14:32 | -12.36250 | -64.33629 | 5344 ft | 157 kts | 296° |
| 2026-05-05 14:32 | -12.35834 | -64.34657 | 5344 ft | 156 kts | 295° |
| 2026-05-05 14:32 | -12.35419 | -64.35683 | 5349 ft | 156 kts | 296° |
| 2026-05-05 14:33 | -12.35002 | -64.36717 | 5347 ft | 157 kts | 296° |
| 2026-05-05 14:33 | -12.34589 | -64.37749 | 5347 ft | 157 kts | 295° |
| 2026-05-05 14:33 | -12.34169 | -64.38788 | 5349 ft | 159 kts | 295° |
| 2026-05-05 14:33 | -12.33747 | -64.39833 | 5348 ft | 158 kts | 295° |
| 2026-05-05 14:34 | -12.33333 | -64.40864 | 5346 ft | 156 kts | 295° |
| 2026-05-05 14:34 | -12.32925 | -64.41878 | 5347 ft | 157 kts | 295° |
| 2026-05-05 14:34 | -12.32507 | -64.42910 | 5345 ft | 157 kts | 295° |
| 2026-05-05 14:34 | -12.32093 | -64.43940 | 5346 ft | 156 kts | 295° |
| 2026-05-05 14:35 | -12.31681 | -64.44965 | 5346 ft | 156 kts | 295° |
| 2026-05-05 14:35 | -12.31269 | -64.45992 | 5351 ft | 159 kts | 295° |
| 2026-05-05 14:35 | -12.30836 | -64.47056 | 5344 ft | 164 kts | 295° |
| 2026-05-05 14:35 | -12.30401 | -64.48128 | 5367 ft | 164 kts | 295° |
| 2026-05-05 14:36 | -12.29966 | -64.49202 | 5346 ft | 161 kts | 295° |
| 2026-05-05 14:36 | -12.29544 | -64.50243 | 5344 ft | 157 kts | 295° |
| 2026-05-05 14:36 | -12.29183 | -64.51288 | 5325 ft | 158 kts | 280° |
| 2026-05-05 14:36 | -12.29555 | -64.52343 | 5265 ft | 167 kts | 229° |
| 2026-05-05 14:37 | -12.30629 | -64.52749 | 5210 ft | 171 kts | 178° |
| 2026-05-05 14:37 | -12.31642 | -64.52218 | 5165 ft | 168 kts | 133° |
| 2026-05-05 14:37 | -12.32403 | -64.51327 | 5174 ft | 165 kts | 129° |
| 2026-05-05 14:37 | -12.33164 | -64.50447 | 5181 ft | 165 kts | 129° |
| 2026-05-05 14:38 | -12.33925 | -64.49569 | 5189 ft | 165 kts | 129° |
| 2026-05-05 14:38 | -12.34709 | -64.48666 | 5203 ft | 175 kts | 129° |
| 2026-05-05 14:38 | -12.35509 | -64.47733 | 5186 ft | 170 kts | 129° |
| 2026-05-05 14:38 | -12.36285 | -64.46833 | 5186 ft | 167 kts | 129° |
| 2026-05-05 14:39 | -12.37050 | -64.45949 | 5185 ft | 165 kts | 129° |
| 2026-05-05 14:39 | -12.37811 | -64.45072 | 5181 ft | 164 kts | 129° |
| 2026-05-05 14:39 | -12.38545 | -64.44180 | 5134 ft | 166 kts | 124° |
| 2026-05-05 14:39 | -12.39206 | -64.43212 | 4970 ft | 170 kts | 122° |
| 2026-05-05 14:40 | -12.39899 | -64.42195 | 4806 ft | 174 kts | 122° |
| 2026-05-05 14:40 | -12.40591 | -64.41181 | 4638 ft | 177 kts | 122° |
| 2026-05-05 14:40 | -12.41294 | -64.40148 | 4466 ft | 177 kts | 122° |
| 2026-05-05 14:40 | -12.41996 | -64.39118 | 4297 ft | 176 kts | 122° |
| 2026-05-05 14:41 | -12.42694 | -64.38080 | 4126 ft | 176 kts | 121° |
| 2026-05-05 14:41 | -12.43014 | -64.36889 | 3927 ft | 174 kts | 92° |
| 2026-05-05 14:41 | -12.43090 | -64.35654 | 3760 ft | 174 kts | 90° |
| 2026-05-05 14:41 | -12.42882 | -64.34452 | 3574 ft | 178 kts | 58° |
| 2026-05-05 14:42 | -12.41920 | -64.33689 | 3333 ft | 176 kts | 16° |
| 2026-05-05 14:42 | -12.40756 | -64.33859 | 3148 ft | 177 kts | 330° |
| 2026-05-05 14:42 | -12.39907 | -64.34755 | 2958 ft | 175 kts | 303° |
| 2026-05-05 14:42 | -12.39235 | -64.35781 | 2781 ft | 175 kts | 321° |
| 2026-05-05 14:43 | -12.38144 | -64.36088 | 2595 ft | 162 kts | 7° |
| 2026-05-05 14:43 | -12.37198 | -64.35528 | 2444 ft | 162 kts | 37° |
| 2026-05-05 14:43 | -12.36348 | -64.34783 | 2378 ft | 159 kts | 36° |
| 2026-05-05 14:43 | -12.35836 | -64.33792 | 2305 ft | 161 kts | 79° |
| 2026-05-05 14:44 | -12.35746 | -64.32674 | 2294 ft | 155 kts | 82° |
| 2026-05-05 14:44 | -12.35671 | -64.31589 | 2295 ft | 151 kts | 85° |
| 2026-05-05 14:44 | -12.35659 | -64.30527 | 2302 ft | 150 kts | 88° |
| 2026-05-05 14:44 | -12.35718 | -64.29436 | 2236 ft | 157 kts | 96° |
| 2026-05-05 14:45 | -12.35934 | -64.28339 | 2163 ft | 158 kts | 99° |
| 2026-05-05 14:45 | -12.36122 | -64.27249 | 2070 ft | 152 kts | 98° |
| 2026-05-05 14:45 | -12.36327 | -64.26138 | 2028 ft | 164 kts | 99° |
| 2026-05-05 14:45 | -12.36926 | -64.25117 | 1913 ft | 176 kts | 140° |
| 2026-05-05 14:46 | -12.38080 | -64.24703 | 1788 ft | 177 kts | 179° |
| 2026-05-05 14:46 | -12.39188 | -64.25129 | 1692 ft | 169 kts | 220° |
| 2026-05-05 14:46 | -12.40116 | -64.25842 | 1700 ft | 169 kts | 213° |
| 2026-05-05 14:46 | -12.41192 | -64.26317 | 1682 ft | 168 kts | 197° |
| 2026-05-05 14:47 | -12.42366 | -64.26485 | 1666 ft | 173 kts | 184° |
| 2026-05-05 14:47 | -12.43576 | -64.26534 | 1678 ft | 174 kts | 187° |
| 2026-05-05 14:47 | -12.44754 | -64.26653 | 1700 ft | 174 kts | 187° |
| 2026-05-05 14:47 | -12.45848 | -64.26746 | 1640 ft | 131 kts | 186° |
| 2026-05-05 14:48 | -12.46633 | -64.26813 | 1614 ft | 102 kts | 187° |
| 2026-05-05 14:48 | -12.47348 | -64.26830 | 1556 ft | 106 kts | 171° |
| 2026-05-05 14:48 | -12.47758 | -64.26285 | 1422 ft | 96 kts | 85° |
| 2026-05-05 14:48 | -12.47387 | -64.25881 | 1328 ft | 72 kts | 14° |
| 2026-05-05 14:49 | -12.46900 | -64.25678 | 1285 ft | 83 kts | 17° |
| 2026-05-05 14:49 | -12.46322 | -64.25493 | 1226 ft | 87 kts | 15° |
| 2026-05-05 14:49 | -12.45737 | -64.25357 | 1073 ft | 87 kts | 7° |
| 2026-05-05 14:49 | -12.45163 | -64.25305 | 980 ft | 75 kts | 360° |
| 2026-05-05 14:50 | -12.44628 | -64.25285 | 920 ft | 78 kts | 356° |
| 2026-05-05 14:50 | -12.44092 | -64.25285 | 845 ft | 79 kts | 356° |
| 2026-05-05 14:50 | -12.43578 | -64.25270 | 700 ft | 65 kts | 1° |
| 2026-05-05 14:50 | -12.43148 | -64.25231 | 657 ft | 61 kts | 4° |
| 2026-05-05 14:51 | -12.42695 | -64.25204 | 565 ft | 75 kts | 360° |
| 2026-05-05 14:51 | -12.42224 | -64.25174 | 557 ft | 60 kts | 1° |
| 2026-05-05 14:51 | -12.41910 | -64.25156 | 565 ft | 23 kts | 22° |
| 2026-05-05 14:51 | -12.41882 | -64.25108 | 566 ft | 0 kts | 96° |
| 2026-05-05 14:52 | -12.41884 | -64.25103 | 566 ft | 4 kts | 114° |
| 2026-05-05 14:52 | -12.41871 | -64.25106 | 569 ft | 0 kts | 298° |